Québec, Quebec

02:38 EDT le 23 octobre 2014 (GMT -0400)
Ancienne-Lorette | Change Station
CLOSE
Current Station
Stations météorologiques personnelles
Location: LAncienne-Lorette, QUéBEC
Altitude: 187 ft
Stations météo à proximité

Alt. 187 ft 46.80 °N, 71.37 °W | Updated 3 minutes ago

Mostly Cloudy
Nuageux
43.9 ° F
Paraît 39 ° F
N
9.0
Vent Variable Vent de ENE

Aujourd’hui il est prévu de faire pratiquement la même température qu’hier.

Aujourd'hui
Haut(e) -- | Bas -- ° F
--% Risque de précip.
Hier
Haut(e) -- | Bas -- ° F
Precip. -- pouce
7:14 AM 5:44 PM
Lune descendante, 0% visible
Pression 30.27 pouce
Visibilité 15.0 Miles terrestres
Nuages Nuageux 9000 ft
Refroidissement éolien 39 ° F
Point de rosée 36 ° F
Humidité 73%
Précipitations 0.00 pouce
Profondeur de la couche neigeuse Non disponible.
UV 0 sur 12
Pollen Non disponible.
Qualité de l'air Non disponible.
Flu Activity Non disponible.
METAR CYQB 230600Z 06016G21KT 15SM BKN090 07/01 A3026 RMK AC5 SLP248

More Conditions Fewer Conditions

Pression 30.27 pouce
Visibilité 15.0 Miles terrestres
Nuages Nuageux 9000 ft
Refroidissement éolien 39 ° F
Point de rosée 36 ° F
Humidité 73%
Précipitations 0.00 pouce
Profondeur de la couche neigeuse Non disponible.
UV 0 sur 12
Pollen Non disponible.
Qualité de l'air Non disponible.
Flu Activity Non disponible.
METAR CYQB 230600Z 06016G21KT 15SM BKN090 07/01 A3026 RMK AC5 SLP248

More Conditions Fewer Conditions

10-Day Weather Forecast

Almanac

Astronomie

Oct. 23, 2014 Lever Coucher
Temps réel 07:14 EDT 17:44 EDT
Crépuscule civil 06:43 EDT 18:15 EDT
Crépuscule nautique 06:08 EDT 18:50 EDT
Crépuscule astronomique 05:33 EDT 19:25 EDT
Lune 06:49 EDT 17:44 EDT
Durée de lumière visible 11h 31m
Longueur du jour
10h 29m
Tomorrow will be 3m 8s shorter.
Lune descendante, 0% of the Moon is Illuminated
Aujourd'hui
Lune descendante
Oct 23
Nouveau
Oct 30
Premier quartier
Nov 6
Pleine lune
Nov 14
Dernier quartier

Les extrêmes de température d’hier

Country Highs Country Lows

Community

WunderPhotos

Upload Photos

1,764,194 Photos téléchargées !

Nearby

Qualité de l'air

Not available.

Épaisseur de neige

Not available.

Activité sismique

Ville Distance Mag. Time & Date
No recent earthquake activity has been reported nearby.
Minimum magnitude displayed is 2.5.

Températures des eaux côtières

Lieu Température
Aucun rapport de station

Stations météo à proximité